^^
Station Historical Data
Daily Summary for December 19, 2017 Units:  Both    English   Metric
« Previous Day
Next Day »
Daily Weekly Monthly Yearly Custom
  High: Low: Average:
Temperature: TemperatureF °F /  -17.8 °C 62.2 °F /  16.8 °C 73.3 °F /  22.9 °C
Dew Point: DewpointF °F /  -17.8 °C 36.0 °F /  2.2 °C 53.2 °F /  11.8 °C
Humidity: Humidity% 19% 55%
Wind Speed: WindSpeedMPHmph /  0km/h - 1.8mph /  2.9km/h
Wind Gust: WindSpeedGustMPHmph /  0km/h - -
Wind- - SE
Pressure: PressureIn in /  0 hPa 29.54 in /  1000.2 hPa -
Precipitation: 0.40 in /  10.16 mm    
Historical Graphs
 
 
Tabular Data for December 19, 2017
Time Temperature Dew Point Pressure Wind Wind Speed Wind Gust Humidity Rainfall Rate (Hourly) solar Conditions
TemperatureF °F /  -17.8 °C DewpointF °F /  -17.8 °C PressureInin /  0hPa Calm     Humidity% HourlyPrecipInin /  0mm SolarRadiationWatts/m^2 W/m2 Conditions
00:01 69.4 °F /  20.8 °C 56.7 °F /  13.7 °C 29.67in /  1004.6hPa Calm     64% 0.00in /  0mm 0.0 W/m2
00:02 69.4 °F /  20.8 °C 57.2 °F /  14 °C 29.67in /  1004.6hPa Calm     65% 0.00in /  0mm 0.0 W/m2
00:07 69.4 °F /  20.8 °C 57.2 °F /  14 °C 29.67in /  1004.6hPa NNE 2.0mph /  3.2km/h 4.0mph /  6.4km/h 65% 0.00in /  0mm 0.0 W/m2
00:12 69.3 °F /  20.7 °C 57.4 °F /  14.1 °C 29.67in /  1004.6hPa Calm   1.0mph /  1.6km/h 66% 0.00in /  0mm 0.0 W/m2
00:13 69.3 °F /  20.7 °C 57.4 °F /  14.1 °C 29.67in /  1004.6hPa NNE 0.9mph /  1.4km/h 1.0mph /  1.6km/h 66% 0.00in /  0mm 0.0 W/m2
00:18 69.3 °F /  20.7 °C 57.9 °F /  14.4 °C 29.67in /  1004.6hPa NNE 0.9mph /  1.4km/h 1.0mph /  1.6km/h 67% 0.00in /  0mm 0.0 W/m2
00:20 69.1 °F /  20.6 °C 57.2 °F /  14 °C 29.67in /  1004.6hPa Calm     66% 0.00in /  0mm 0.0 W/m2
00:26 69.1 °F /  20.6 °C 57.7 °F /  14.3 °C 29.66in /  1004.3hPa Calm   1.0mph /  1.6km/h 67% 0.00in /  0mm 0.0 W/m2
00:31 68.9 °F /  20.5 °C 57.6 °F /  14.2 °C 29.66in /  1004.3hPa Calm     67% 0.00in /  0mm 0.0 W/m2
00:36 68.7 °F /  20.4 °C 57.7 °F /  14.3 °C 29.66in /  1004.3hPa Calm     68% 0.00in /  0mm 0.0 W/m2
00:41 68.5 °F /  20.3 °C 57.6 °F /  14.2 °C 29.66in /  1004.3hPa Calm   1.0mph /  1.6km/h 68% 0.00in /  0mm 0.0 W/m2
00:46 68.5 °F /  20.3 °C 57.6 °F /  14.2 °C 29.66in /  1004.3hPa Calm     68% 0.00in /  0mm 0.0 W/m2
00:51 68.5 °F /  20.3 °C 57.6 °F /  14.2 °C 29.65in /  1003.9hPa Calm     68% 0.00in /  0mm 0.0 W/m2
00:55 68.4 °F /  20.2 °C 57.7 °F /  14.3 °C 29.66in /  1004.3hPa Calm     69% 0.00in /  0mm 0.0 W/m2
01:00 68.2 °F /  20.1 °C 57.6 °F /  14.2 °C 29.65in /  1003.9hPa Calm     69% 0.00in /  0mm 0.0 W/m2
01:02 68.2 °F /  20.1 °C 57.6 °F /  14.2 °C 29.65in /  1003.9hPa Calm     69% 0.00in /  0mm 0.0 W/m2
01:07 68.0 °F /  20 °C 57.9 °F /  14.4 °C 29.65in /  1003.9hPa Calm   1.0mph /  1.6km/h 70% 0.00in /  0mm 0.0 W/m2
01:12 67.8 °F /  19.9 °C 57.2 °F /  14 °C 29.65in /  1003.9hPa Calm     69% 0.00in /  0mm 0.0 W/m2
01:18 67.6 °F /  19.8 °C 56.7 °F /  13.7 °C 29.65in /  1003.9hPa Calm     68% 0.00in /  0mm 0.0 W/m2
01:19 67.6 °F /  19.8 °C 56.7 °F /  13.7 °C 29.65in /  1003.9hPa Calm     68% 0.00in /  0mm 0.0 W/m2
01:29 67.5 °F /  19.7 °C 56.1 °F /  13.4 °C 29.65in /  1003.9hPa Calm     67% 0.00in /  0mm 0.0 W/m2
01:31 67.3 °F /  19.6 °C 55.9 °F /  13.3 °C 29.65in /  1003.9hPa Calm     67% 0.00in /  0mm 0.0 W/m2
01:37 67.3 °F /  19.6 °C 55.6 °F /  13.1 °C 29.65in /  1003.9hPa Calm     66% 0.00in /  0mm 0.0 W/m2
01:42 66.9 °F /  19.4 °C 55.6 °F /  13.1 °C 29.65in /  1003.9hPa Calm     67% 0.00in /  0mm 0.0 W/m2
01:47 66.9 °F /  19.4 °C 55.9 °F /  13.3 °C 29.65in /  1003.9hPa Calm     68% 0.00in /  0mm 0.0 W/m2
01:52 66.7 °F /  19.3 °C 55.8 °F /  13.2 °C 29.65in /  1003.9hPa Calm     68% 0.00in /  0mm 0.0 W/m2
01:57 66.6 °F /  19.2 °C 55.6 °F /  13.1 °C 29.65in /  1003.9hPa Calm     68% 0.00in /  0mm 0.0 W/m2
02:02 66.4 °F /  19.1 °C 55.6 °F /  13.1 °C 29.65in /  1003.9hPa Calm     68% 0.00in /  0mm 0.0 W/m2
02:07 66.4 °F /  19.1 °C 55.9 °F /  13.3 °C 29.65in /  1003.9hPa Calm     69% 0.00in /  0mm 0.0 W/m2
02:09 66.4 °F /  19.1 °C 55.9 °F /  13.3 °C 29.65in /  1003.9hPa Calm     69% 0.00in /  0mm 0.0 W/m2
02:14 66.0 °F /  18.9 °C 55.2 °F /  12.9 °C 29.64in /  1003.6hPa Calm     68% 0.00in /  0mm 0.0 W/m2
02:19 65.8 °F /  18.8 °C 55.0 °F /  12.8 °C 29.64in /  1003.6hPa Calm     68% 0.00in /  0mm 0.0 W/m2
02:24 65.8 °F /  18.8 °C 55.8 °F /  13.2 °C 29.64in /  1003.6hPa Calm     70% 0.00in /  0mm 0.0 W/m2
02:30 65.7 °F /  18.7 °C 55.9 °F /  13.3 °C 29.64in /  1003.6hPa Calm     71% 0.00in /  0mm 0.0 W/m2
02:35 65.7 °F /  18.7 °C 56.8 °F /  13.8 °C 29.63in /  1003.3hPa Calm     73% 0.00in /  0mm 0.0 W/m2
02:40 65.5 °F /  18.6 °C 57.0 °F /  13.9 °C 29.63in /  1003.3hPa Calm     74% 0.00in /  0mm 0.0 W/m2
02:45 65.5 °F /  18.6 °C 57.0 °F /  13.9 °C 29.63in /  1003.3hPa Calm     74% 0.00in /  0mm 0.0 W/m2
02:50 65.1 °F /  18.4 °C 56.7 °F /  13.7 °C 29.62in /  1002.9hPa Calm   2.0mph /  3.2km/h 74% 0.00in /  0mm 0.0 W/m2
02:55 65.1 °F /  18.4 °C 57.0 °F /  13.9 °C 29.62in /  1002.9hPa Calm   1.0mph /  1.6km/h 75% 0.00in /  0mm 0.0 W/m2
03:00 64.9 °F /  18.3 °C 57.2 °F /  14 °C 29.62in /  1002.9hPa North 0.9mph /  1.4km/h 1.0mph /  1.6km/h 76% 0.00in /  0mm 0.0 W/m2
03:05 64.9 °F /  18.3 °C 57.6 °F /  14.2 °C 29.62in /  1002.9hPa SE 2.9mph /  4.7km/h 4.0mph /  6.4km/h 77% 0.00in /  0mm 0.0 W/m2
03:11 64.8 °F /  18.2 °C 57.0 °F /  13.9 °C 29.62in /  1002.9hPa Calm   2.0mph /  3.2km/h 76% 0.00in /  0mm 0.0 W/m2
03:17 64.9 °F /  18.3 °C 57.2 °F /  14 °C 29.62in /  1002.9hPa Calm   1.0mph /  1.6km/h 76% 0.00in /  0mm 0.0 W/m2
03:22 64.9 °F /  18.3 °C 56.8 °F /  13.8 °C 29.62in /  1002.9hPa Calm     75% 0.00in /  0mm 0.0 W/m2
03:24 64.9 °F /  18.3 °C 57.2 °F /  14 °C 29.62in /  1002.9hPa Calm     76% 0.00in /  0mm 0.0 W/m2
03:29 64.8 °F /  18.2 °C 57.0 °F /  13.9 °C 29.62in /  1002.9hPa Calm   1.0mph /  1.6km/h 76% 0.00in /  0mm 0.0 W/m2
03:35 64.8 °F /  18.2 °C 56.7 °F /  13.7 °C 29.61in /  1002.6hPa Calm     75% 0.00in /  0mm 0.0 W/m2
03:37 64.6 °F /  18.1 °C 56.5 °F /  13.6 °C 29.61in /  1002.6hPa Calm     75% 0.00in /  0mm 0.0 W/m2
03:42 64.6 °F /  18.1 °C 56.8 °F /  13.8 °C 29.61in /  1002.6hPa Calm   1.0mph /  1.6km/h 76% 0.00in /  0mm 0.0 W/m2
03:47 64.6 °F /  18.1 °C 56.5 °F /  13.6 °C 29.61in /  1002.6hPa Calm     75% 0.00in /  0mm 0.0 W/m2
03:48 64.6 °F /  18.1 °C 56.5 °F /  13.6 °C 29.61in /  1002.6hPa Calm     75% 0.00in /  0mm 0.0 W/m2
03:53 64.4 °F /  18 °C 56.3 °F /  13.5 °C 29.61in /  1002.6hPa Calm     75% 0.00in /  0mm 0.0 W/m2
03:55 64.4 °F /  18 °C 56.7 °F /  13.7 °C 29.61in /  1002.6hPa Calm     76% 0.00in /  0mm 0.0 W/m2
04:00 64.2 °F /  17.9 °C 56.1 °F /  13.4 °C 29.60in /  1002.3hPa Calm     75% 0.00in /  0mm 0.0 W/m2
04:05 64.2 °F /  17.9 °C 55.8 °F /  13.2 °C 29.61in /  1002.6hPa Calm     74% 0.00in /  0mm 0.0 W/m2
04:10 64.0 °F /  17.8 °C 55.6 °F /  13.1 °C 29.61in /  1002.6hPa Calm     74% 0.00in /  0mm 0.0 W/m2
04:16 63.9 °F /  17.7 °C 54.7 °F /  12.6 °C 29.61in /  1002.6hPa Calm   1.0mph /  1.6km/h 72% 0.00in /  0mm 0.0 W/m2
04:21 63.9 °F /  17.7 °C 54.7 °F /  12.6 °C 29.61in /  1002.6hPa Calm     72% 0.00in /  0mm 0.0 W/m2
04:26 63.7 °F /  17.6 °C 55.2 °F /  12.9 °C 29.62in /  1002.9hPa Calm     74% 0.00in /  0mm 0.0 W/m2
04:31 63.7 °F /  17.6 °C 54.9 °F /  12.7 °C 29.62in /  1002.9hPa Calm     73% 0.00in /  0mm 0.0 W/m2
04:36 63.5 °F /  17.5 °C 54.7 °F /  12.6 °C 29.62in /  1002.9hPa Calm   1.0mph /  1.6km/h 73% 0.00in /  0mm 0.0 W/m2
04:41 63.5 °F /  17.5 °C 55.4 °F /  13 °C 29.62in /  1002.9hPa Calm   1.0mph /  1.6km/h 75% 0.00in /  0mm 0.0 W/m2
04:46 63.3 °F /  17.4 °C 55.6 °F /  13.1 °C 29.62in /  1002.9hPa Calm   1.0mph /  1.6km/h 76% 0.00in /  0mm 0.0 W/m2
04:48 63.3 °F /  17.4 °C 55.6 °F /  13.1 °C 29.62in /  1002.9hPa Calm   1.0mph /  1.6km/h 76% 0.00in /  0mm 0.0 W/m2
04:53 63.3 °F /  17.4 °C 56.3 °F /  13.5 °C 29.62in /  1002.9hPa Calm   1.0mph /  1.6km/h 78% 0.00in /  0mm 0.0 W/m2
04:58 63.3 °F /  17.4 °C 56.3 °F /  13.5 °C 29.62in /  1002.9hPa Calm     78% 0.00in /  0mm 0.0 W/m2
05:03 63.1 °F /  17.3 °C 56.5 °F /  13.6 °C 29.62in /  1002.9hPa Calm     79% 0.00in /  0mm 0.0 W/m2
05:09 63.1 °F /  17.3 °C 56.5 °F /  13.6 °C 29.62in /  1002.9hPa Calm     79% 0.00in /  0mm 0.0 W/m2
05:14 63.1 °F /  17.3 °C 56.5 °F /  13.6 °C 29.62in /  1002.9hPa Calm   1.0mph /  1.6km/h 79% 0.00in /  0mm 0.0 W/m2
05:15 63.1 °F /  17.3 °C 56.5 °F /  13.6 °C 29.62in /  1002.9hPa Calm   1.0mph /  1.6km/h 79% 0.00in /  0mm 0.0 W/m2
05:21 63.0 °F /  17.2 °C 56.3 °F /  13.5 °C 29.62in /  1002.9hPa Calm   1.0mph /  1.6km/h 79% 0.00in /  0mm 0.0 W/m2
05:26 63.0 °F /  17.2 °C 55.9 °F /  13.3 °C 29.63in /  1003.3hPa Calm     78% 0.00in /  0mm 0.0 W/m2
05:31 63.0 °F /  17.2 °C 55.9 °F /  13.3 °C 29.63in /  1003.3hPa Calm     78% 0.00in /  0mm 0.0 W/m2
05:38 63.0 °F /  17.2 °C 56.3 °F /  13.5 °C 29.63in /  1003.3hPa Calm     79% 0.00in /  0mm 0.0 W/m2
05:43 62.8 °F /  17.1 °C 56.5 °F /  13.6 °C 29.62in /  1002.9hPa Calm   1.0mph /  1.6km/h 80% 0.00in /  0mm 0.0 W/m2
05:48 62.8 °F /  17.1 °C 56.5 °F /  13.6 °C 29.62in /  1002.9hPa Calm     80% 0.00in /  0mm 0.0 W/m2
05:53 62.8 °F /  17.1 °C 56.5 °F /  13.6 °C 29.63in /  1003.3hPa Calm     80% 0.00in /  0mm 0.0 W/m2
05:58 62.8 °F /  17.1 °C 56.5 °F /  13.6 °C 29.63in /  1003.3hPa Calm     80% 0.00in /  0mm 0.0 W/m2
06:03 62.6 °F /  17 °C 55.9 °F /  13.3 °C 29.63in /  1003.3hPa Calm     79% 0.00in /  0mm 0.0 W/m2
06:08 62.4 °F /  16.9 °C 56.5 °F /  13.6 °C 29.63in /  1003.3hPa Calm     81% 0.00in /  0mm 0.0 W/m2
06:10 62.4 °F /  16.9 °C 56.5 °F /  13.6 °C 29.63in /  1003.3hPa Calm     81% 0.00in /  0mm 5.0 W/m2
06:15 62.4 °F /  16.9 °C 56.5 °F /  13.6 °C 29.62in /  1002.9hPa Calm     81% 0.00in /  0mm 9.0 W/m2
06:20 62.4 °F /  16.9 °C 56.8 °F /  13.8 °C 29.63in /  1003.3hPa Calm     82% 0.00in /  0mm 12.0 W/m2
06:25 62.2 °F /  16.8 °C 56.3 °F /  13.5 °C 29.63in /  1003.3hPa Calm   1.0mph /  1.6km/h 81% 0.00in /  0mm 14.0 W/m2
06:30 62.2 °F /  16.8 °C 56.7 °F /  13.7 °C 29.63in /  1003.3hPa Calm     82% 0.00in /  0mm 19.0 W/m2
06:36 62.2 °F /  16.8 °C 56.7 °F /  13.7 °C 29.64in /  1003.6hPa Calm     82% 0.00in /  0mm 26.0 W/m2
06:37 62.2 °F /  16.8 °C 56.7 °F /  13.7 °C 29.63in /  1003.3hPa Calm     82% 0.00in /  0mm 28.0 W/m2
06:38 62.2 °F /  16.8 °C 56.7 °F /  13.7 °C 29.64in /  1003.6hPa SSE 1.0mph /  1.6km/h 1.0mph /  1.6km/h 82% 0.00in /  0mm 28.0 W/m2
06:44 62.2 °F /  16.8 °C 56.7 °F /  13.7 °C 29.64in /  1003.6hPa Calm     82% 0.00in /  0mm 37.0 W/m2
06:49 62.4 °F /  16.9 °C 57.2 °F /  14 °C 29.64in /  1003.6hPa Calm   1.0mph /  1.6km/h 83% 0.00in /  0mm 44.0 W/m2
06:54 62.8 °F /  17.1 °C 57.9 °F /  14.4 °C 29.64in /  1003.6hPa Calm     84% 0.00in /  0mm 47.0 W/m2
06:58 63.0 °F /  17.2 °C 58.1 °F /  14.5 °C 29.64in /  1003.6hPa ENE 0.9mph /  1.4km/h 3.0mph /  4.8km/h 84% 0.00in /  0mm 46.0 W/m2
07:03 63.3 °F /  17.4 °C 58.5 °F /  14.7 °C 29.64in /  1003.6hPa ENE 0.9mph /  1.4km/h 3.0mph /  4.8km/h 84% 0.00in /  0mm 39.0 W/m2
07:09 63.7 °F /  17.6 °C 58.8 °F /  14.9 °C 29.65in /  1003.9hPa Calm     84% 0.00in /  0mm 37.0 W/m2
07:14 63.9 °F /  17.7 °C 58.3 °F /  14.6 °C 29.65in /  1003.9hPa ENE 0.9mph /  1.4km/h 2.0mph /  3.2km/h 82% 0.00in /  0mm 39.0 W/m2
07:19 64.0 °F /  17.8 °C 58.5 °F /  14.7 °C 29.65in /  1003.9hPa Calm   1.0mph /  1.6km/h 82% 0.00in /  0mm 42.0 W/m2
07:20 64.0 °F /  17.8 °C 58.1 °F /  14.5 °C 29.65in /  1003.9hPa Calm     81% 0.00in /  0mm 42.0 W/m2
07:26 64.6 °F /  18.1 °C 57.9 °F /  14.4 °C 29.65in /  1003.9hPa ENE 0.9mph /  1.4km/h 2.0mph /  3.2km/h 79% 0.00in /  0mm 46.0 W/m2
07:31 65.1 °F /  18.4 °C 57.4 °F /  14.1 °C 29.65in /  1003.9hPa East 2.0mph /  3.2km/h 2.0mph /  3.2km/h 76% 0.00in /  0mm 47.0 W/m2
07:41 66.6 °F /  19.2 °C 54.9 °F /  12.7 °C 29.65in /  1003.9hPa South 0.9mph /  1.4km/h 4.0mph /  6.4km/h 66% 0.00in /  0mm 186.0 W/m2
07:46 67.5 °F /  19.7 °C 52.7 °F /  11.5 °C 29.65in /  1003.9hPa South 4.0mph /  6.4km/h 8.0mph /  12.9km/h 59% 0.00in /  0mm 246.0 W/m2
07:51 68.2 °F /  20.1 °C 50.9 °F /  10.5 °C 29.65in /  1003.9hPa SSE 6.0mph /  9.7km/h 6.0mph /  9.7km/h 54% 0.00in /  0mm 376.0 W/m2
07:56 69.1 °F /  20.6 °C 48.0 °F /  8.9 °C 29.65in /  1003.9hPa SW 0.9mph /  1.4km/h 5.0mph /  8km/h 47% 0.00in /  0mm 380.0 W/m2
08:01 70.0 °F /  21.1 °C 47.7 °F /  8.7 °C 29.65in /  1003.9hPa SE 2.9mph /  4.7km/h 6.0mph /  9.7km/h 45% 0.00in /  0mm 408.0 W/m2
08:04 70.3 °F /  21.3 °C 47.5 °F /  8.6 °C 29.66in /  1004.3hPa SE 4.0mph /  6.4km/h 5.0mph /  8km/h 44% 0.00in /  0mm 359.0 W/m2
08:06 70.7 °F /  21.5 °C 47.7 °F /  8.7 °C 29.66in /  1004.3hPa SSE 0.9mph /  1.4km/h 6.0mph /  9.7km/h 44% 0.00in /  0mm 381.0 W/m2
08:17 72.0 °F /  22.2 °C 46.9 °F /  8.3 °C 29.66in /  1004.3hPa SE 4.0mph /  6.4km/h 6.0mph /  9.7km/h 41% 0.00in /  0mm 475.0 W/m2
08:20 72.3 °F /  22.4 °C 46.6 °F /  8.1 °C 29.66in /  1004.3hPa SE 2.9mph /  4.7km/h 4.0mph /  6.4km/h 40% 0.00in /  0mm 499.0 W/m2
08:26 73.0 °F /  22.8 °C 47.3 °F /  8.5 °C 29.66in /  1004.3hPa SE 0.9mph /  1.4km/h 5.0mph /  8km/h 40% 0.00in /  0mm 522.0 W/m2
08:31 73.6 °F /  23.1 °C 49.1 °F /  9.5 °C 29.66in /  1004.3hPa SW 2.0mph /  3.2km/h 3.0mph /  4.8km/h 42% 0.00in /  0mm 543.0 W/m2
08:37 73.4 °F /  23 °C 50.2 °F /  10.1 °C 29.66in /  1004.3hPa Calm   3.0mph /  4.8km/h 44% 0.00in /  0mm 524.0 W/m2
08:42 73.4 °F /  23 °C 51.4 °F /  10.8 °C 29.66in /  1004.3hPa Calm   3.0mph /  4.8km/h 46% 0.00in /  0mm 533.0 W/m2
08:43 73.8 °F /  23.2 °C 51.1 °F /  10.6 °C 29.66in /  1004.3hPa Calm   1.0mph /  1.6km/h 45% 0.00in /  0mm 536.0 W/m2
08:48 74.1 °F /  23.4 °C 48.9 °F /  9.4 °C 29.66in /  1004.3hPa ESE 2.0mph /  3.2km/h 2.0mph /  3.2km/h 41% 0.00in /  0mm 550.0 W/m2
08:53 74.8 °F /  23.8 °C 48.2 °F /  9 °C 29.66in /  1004.3hPa ENE 0.9mph /  1.4km/h 1.0mph /  1.6km/h 39% 0.00in /  0mm 636.0 W/m2
09:00 75.6 °F /  24.2 °C 48.2 °F /  9 °C 29.66in /  1004.3hPa Calm   1.0mph /  1.6km/h 38% 0.00in /  0mm 612.0 W/m2
09:05 76.1 °F /  24.5 °C 48.6 °F /  9.2 °C 29.66in /  1004.3hPa Calm   1.0mph /  1.6km/h 38% 0.00in /  0mm 613.0 W/m2
09:10 76.6 °F /  24.8 °C 48.4 °F /  9.1 °C 29.66in /  1004.3hPa ESE 2.0mph /  3.2km/h 2.0mph /  3.2km/h 37% 0.00in /  0mm 652.0 W/m2
09:15 77.2 °F /  25.1 °C 48.2 °F /  9 °C 29.66in /  1004.3hPa SSE 0.9mph /  1.4km/h 3.0mph /  4.8km/h 36% 0.00in /  0mm 570.0 W/m2
09:20 77.4 °F /  25.2 °C 47.5 °F /  8.6 °C 29.66in /  1004.3hPa Calm   1.0mph /  1.6km/h 35% 0.00in /  0mm 686.0 W/m2
09:26 78.1 °F /  25.6 °C 47.5 °F /  8.6 °C 29.66in /  1004.3hPa Calm   3.0mph /  4.8km/h 34% 0.00in /  0mm 775.0 W/m2
09:28 78.3 °F /  25.7 °C 46.8 °F /  8.2 °C 29.66in /  1004.3hPa NNE 0.9mph /  1.4km/h 1.0mph /  1.6km/h 33% 0.00in /  0mm 800.0 W/m2
09:33 78.8 °F /  26 °C 43.9 °F /  6.6 °C 29.67in /  1004.6hPa Calm   4.0mph /  6.4km/h 29% 0.00in /  0mm 809.0 W/m2
09:39 79.0 °F /  26.1 °C 45.0 °F /  7.2 °C 29.66in /  1004.3hPa Calm   2.0mph /  3.2km/h 30% 0.00in /  0mm 756.0 W/m2
09:45 79.0 °F /  26.1 °C 42.1 °F /  5.6 °C 29.67in /  1004.6hPa Calm   3.0mph /  4.8km/h 27% 0.00in /  0mm 828.0 W/m2
09:50 79.3 °F /  26.3 °C 39.4 °F /  4.1 °C 29.67in /  1004.6hPa WSW 2.0mph /  3.2km/h 3.0mph /  4.8km/h 24% 0.00in /  0mm 865.0 W/m2
09:55 79.5 °F /  26.4 °C 38.5 °F /  3.6 °C 29.67in /  1004.6hPa South 2.9mph /  4.7km/h 6.0mph /  9.7km/h 23% 0.00in /  0mm 981.0 W/m2
10:00 80.1 °F /  26.7 °C 38.8 °F /  3.8 °C 29.67in /  1004.6hPa SSE 4.9mph /  7.9km/h 8.0mph /  12.9km/h 23% 0.00in /  0mm 956.0 W/m2
10:05 80.4 °F /  26.9 °C 38.1 °F /  3.4 °C 29.67in /  1004.6hPa Calm   4.0mph /  6.4km/h 22% 0.00in /  0mm 343.0 W/m2
10:10 80.4 °F /  26.9 °C 38.1 °F /  3.4 °C 29.67in /  1004.6hPa Calm   4.0mph /  6.4km/h 22% 0.00in /  0mm 404.0 W/m2
10:15 80.6 °F /  27 °C 39.4 °F /  4.1 °C 29.67in /  1004.6hPa ESE 2.9mph /  4.7km/h 9.0mph /  14.5km/h 23% 0.00in /  0mm 534.0 W/m2
10:20 81.0 °F /  27.2 °C 38.5 °F /  3.6 °C 29.67in /  1004.6hPa SSW 2.0mph /  3.2km/h 7.0mph /  11.3km/h 22% 0.00in /  0mm 1181.0 W/m2
10:25 81.3 °F /  27.4 °C 37.6 °F /  3.1 °C 29.67in /  1004.6hPa SSE 0.9mph /  1.4km/h 6.0mph /  9.7km/h 21% 0.00in /  0mm 1109.0 W/m2
10:26 81.7 °F /  27.6 °C 39.2 °F /  4 °C 29.67in /  1004.6hPa SSW 2.0mph /  3.2km/h 6.0mph /  9.7km/h 22% 0.00in /  0mm 1111.0 W/m2
10:32 82.2 °F /  27.9 °C 39.6 °F /  4.2 °C 29.67in /  1004.6hPa SW 2.9mph /  4.7km/h 8.0mph /  12.9km/h 22% 0.00in /  0mm 981.0 W/m2
10:33 82.2 °F /  27.9 °C 37.2 °F /  2.9 °C 29.67in /  1004.6hPa ESE 0.9mph /  1.4km/h 8.0mph /  12.9km/h 20% 0.00in /  0mm 976.0 W/m2
10:38 82.2 °F /  27.9 °C 37.2 °F /  2.9 °C 29.67in /  1004.6hPa SW 4.0mph /  6.4km/h 4.0mph /  6.4km/h 20% 0.00in /  0mm 932.0 W/m2
10:43 82.0 °F /  27.8 °C 38.3 °F /  3.5 °C 29.67in /  1004.6hPa SE 4.0mph /  6.4km/h 8.0mph /  12.9km/h 21% 0.00in /  0mm 981.0 W/m2
10:48 82.4 °F /  28 °C 36.0 °F /  2.2 °C 29.67in /  1004.6hPa SSE 4.9mph /  7.9km/h 7.0mph /  11.3km/h 19% 0.00in /  0mm 877.0 W/m2
10:53 82.8 °F /  28.2 °C 37.6 °F /  3.1 °C 29.67in /  1004.6hPa Calm   7.0mph /  11.3km/h 20% 0.00in /  0mm 991.0 W/m2
11:00 82.4 °F /  28 °C 39.7 °F /  4.3 °C 29.67in /  1004.6hPa SE 2.9mph /  4.7km/h 10.0mph /  16.1km/h 22% 0.00in /  0mm 977.0 W/m2
11:05 82.9 °F /  28.3 °C 37.8 °F /  3.2 °C 29.67in /  1004.6hPa SE 4.0mph /  6.4km/h 9.0mph /  14.5km/h 20% 0.00in /  0mm 1014.0 W/m2
11:07 83.1 °F /  28.4 °C 39.2 °F /  4 °C 29.67in /  1004.6hPa ESE 6.9mph /  11.1km/h 11.0mph /  17.7km/h 21% 0.00in /  0mm 1014.0 W/m2
11:12 83.8 °F /  28.8 °C 41.0 °F /  5 °C 29.67in /  1004.6hPa SE 6.9mph /  11.1km/h 9.0mph /  14.5km/h 22% 0.00in /  0mm 983.0 W/m2
11:18 84.2 °F /  29 °C 41.2 °F /  5.1 °C 29.66in /  1004.3hPa SE 6.0mph /  9.7km/h 9.0mph /  14.5km/h 22% 0.00in /  0mm 1023.0 W/m2
11:21 84.4 °F /  29.1 °C 41.4 °F /  5.2 °C 29.66in /  1004.3hPa SSE 2.0mph /  3.2km/h 6.0mph /  9.7km/h 22% 0.00in /  0mm 1004.0 W/m2
11:26 84.6 °F /  29.2 °C 41.5 °F /  5.3 °C 29.66in /  1004.3hPa WSW 0.9mph /  1.4km/h 2.0mph /  3.2km/h 22% 0.00in /  0mm 1004.0 W/m2
11:27 84.7 °F /  29.3 °C 42.8 °F /  6 °C 29.66in /  1004.3hPa Calm   5.0mph /  8km/h 23% 0.00in /  0mm 1023.0 W/m2
11:32 85.5 °F /  29.7 °C 42.3 °F /  5.7 °C 29.66in /  1004.3hPa WSW 2.9mph /  4.7km/h 5.0mph /  8km/h 22% 0.00in /  0mm 993.0 W/m2
11:37 85.6 °F /  29.8 °C 42.4 °F /  5.8 °C 29.66in /  1004.3hPa SSE 2.9mph /  4.7km/h 4.0mph /  6.4km/h 22% 0.00in /  0mm 1011.0 W/m2
11:38 85.6 °F /  29.8 °C 42.4 °F /  5.8 °C 29.66in /  1004.3hPa ESE 4.9mph /  7.9km/h 5.0mph /  8km/h 22% 0.00in /  0mm 947.0 W/m2
11:44 85.6 °F /  29.8 °C 42.4 °F /  5.8 °C 29.65in /  1003.9hPa SE 2.9mph /  4.7km/h 5.0mph /  8km/h 22% 0.00in /  0mm 986.0 W/m2
11:54 86.5 °F /  30.3 °C 45.5 °F /  7.5 °C 29.65in /  1003.9hPa SSE 0.9mph /  1.4km/h 6.0mph /  9.7km/h 24% 0.00in /  0mm 947.0 W/m2
11:59 86.7 °F /  30.4 °C 44.4 °F /  6.9 °C 29.65in /  1003.9hPa ESE 2.0mph /  3.2km/h 6.0mph /  9.7km/h 23% 0.00in /  0mm 947.0 W/m2
12:04 87.3 °F /  30.7 °C 45.0 °F /  7.2 °C 29.65in /  1003.9hPa NNE 6.9mph /  11.1km/h 9.0mph /  14.5km/h 23% 0.00in /  0mm 953.0 W/m2
12:09 87.3 °F /  30.7 °C 45.0 °F /  7.2 °C 29.65in /  1003.9hPa SSE 4.0mph /  6.4km/h 4.0mph /  6.4km/h 23% 0.00in /  0mm 1037.0 W/m2
12:14 87.6 °F /  30.9 °C 45.3 °F /  7.4 °C 29.64in /  1003.6hPa SSW 0.9mph /  1.4km/h 7.0mph /  11.3km/h 23% 0.00in /  0mm 1069.0 W/m2
12:19 88.0 °F /  31.1 °C 45.5 °F /  7.5 °C 29.64in /  1003.6hPa ESE 2.9mph /  4.7km/h 7.0mph /  11.3km/h 23% 0.00in /  0mm 1079.0 W/m2
12:24 88.2 °F /  31.2 °C 44.6 °F /  7 °C 29.64in /  1003.6hPa ENE 2.0mph /  3.2km/h 4.0mph /  6.4km/h 22% 0.00in /  0mm 1085.0 W/m2
12:25 88.2 °F /  31.2 °C 44.6 °F /  7 °C 29.64in /  1003.6hPa SE 2.0mph /  3.2km/h 4.0mph /  6.4km/h 22% 0.00in /  0mm 1090.0 W/m2
12:30 88.0 °F /  31.1 °C 45.5 °F /  7.5 °C 29.64in /  1003.6hPa NNW 2.9mph /  4.7km/h 9.0mph /  14.5km/h 23% 0.00in /  0mm 1005.0 W/m2
12:33 88.0 °F /  31.1 °C 45.5 °F /  7.5 °C 29.63in /  1003.3hPa NNW 6.0mph /  9.7km/h 11.0mph /  17.7km/h 23% 0.00in /  0mm 1114.0 W/m2
12:45 88.2 °F /  31.2 °C 46.8 °F /  8.2 °C 29.63in /  1003.3hPa East 6.0mph /  9.7km/h 6.0mph /  9.7km/h 24% 0.00in /  0mm 1130.0 W/m2
12:50 88.9 °F /  31.6 °C 46.2 °F /  7.9 °C 29.63in /  1003.3hPa East 4.0mph /  6.4km/h 6.0mph /  9.7km/h 23% 0.00in /  0mm 1129.0 W/m2
12:55 89.4 °F /  31.9 °C 45.5 °F /  7.5 °C 29.63in /  1003.3hPa Calm   7.0mph /  11.3km/h 22% 0.00in /  0mm 1011.0 W/m2
13:00 89.4 °F /  31.9 °C 46.8 °F /  8.2 °C 29.62in /  1002.9hPa SE 4.0mph /  6.4km/h 8.0mph /  12.9km/h 23% 0.00in /  0mm 325.0 W/m2
13:05 88.3 °F /  31.3 °C 45.9 °F /  7.7 °C 29.62in /  1002.9hPa SSW 2.9mph /  4.7km/h 4.0mph /  6.4km/h 23% 0.00in /  0mm 269.0 W/m2
13:10 87.4 °F /  30.8 °C 46.2 °F /  7.9 °C 29.62in /  1002.9hPa West 2.0mph /  3.2km/h 5.0mph /  8km/h 24% 0.00in /  0mm 1185.0 W/m2
13:12 87.4 °F /  30.8 °C 46.2 °F /  7.9 °C 29.62in /  1002.9hPa Calm   8.0mph /  12.9km/h 24% 0.00in /  0mm 1266.0 W/m2
13:17 88.5 °F /  31.4 °C 47.1 °F /  8.4 °C 29.61in /  1002.6hPa North 10.1mph /  16.3km/h 10.1mph /  16.3km/h 24% 0.00in /  0mm 1317.0 W/m2
13:22 89.4 °F /  31.9 °C 46.8 °F /  8.2 °C 29.61in /  1002.6hPa West 2.0mph /  3.2km/h 5.0mph /  8km/h 23% 0.00in /  0mm 415.0 W/m2
13:28 89.2 °F /  31.8 °C 46.6 °F /  8.1 °C 29.61in /  1002.6hPa Calm   1.0mph /  1.6km/h 23% 0.00in /  0mm 278.0 W/m2
13:33 89.1 °F /  31.7 °C 47.7 °F /  8.7 °C 29.61in /  1002.6hPa NE 4.9mph /  7.9km/h 6.0mph /  9.7km/h 24% 0.00in /  0mm 269.0 W/m2
13:38 88.5 °F /  31.4 °C 47.1 °F /  8.4 °C 29.61in /  1002.6hPa WNW 2.9mph /  4.7km/h 7.0mph /  11.3km/h 24% 0.00in /  0mm 339.0 W/m2
13:43 88.0 °F /  31.1 °C 46.6 °F /  8.1 °C 29.61in /  1002.6hPa Calm   5.0mph /  8km/h 24% 0.00in /  0mm 360.0 W/m2
13:48 87.6 °F /  30.9 °C 46.4 °F /  8 °C 29.60in /  1002.3hPa NNW 0.9mph /  1.4km/h 3.0mph /  4.8km/h 24% 0.00in /  0mm 387.0 W/m2
13:50 87.8 °F /  31 °C 46.6 °F /  8.1 °C 29.60in /  1002.3hPa NW 2.0mph /  3.2km/h 3.0mph /  4.8km/h 24% 0.00in /  0mm 564.0 W/m2
13:55 88.2 °F /  31.2 °C 47.8 °F /  8.8 °C 29.61in /  1002.6hPa NNW 2.9mph /  4.7km/h 5.0mph /  8km/h 25% 0.00in /  0mm 385.0 W/m2
14:00 88.5 °F /  31.4 °C 47.1 °F /  8.4 °C 29.60in /  1002.3hPa Calm   4.0mph /  6.4km/h 24% 0.00in /  0mm 1211.0 W/m2
14:05 89.2 °F /  31.8 °C 47.7 °F /  8.7 °C 29.60in /  1002.3hPa Calm   7.0mph /  11.3km/h 24% 0.00in /  0mm 1195.0 W/m2
14:10 89.8 °F /  32.1 °C 47.1 °F /  8.4 °C 29.60in /  1002.3hPa NE 0.9mph /  1.4km/h 4.0mph /  6.4km/h 23% 0.00in /  0mm 327.0 W/m2
14:16 89.6 °F /  32 °C 46.9 °F /  8.3 °C 29.60in /  1002.3hPa SW 2.0mph /  3.2km/h 3.0mph /  4.8km/h 23% 0.00in /  0mm 265.0 W/m2
14:20 89.2 °F /  31.8 °C 46.6 °F /  8.1 °C 29.59in /  1001.9hPa WSW 2.0mph /  3.2km/h 5.0mph /  8km/h 23% 0.00in /  0mm 329.0 W/m2
14:25 89.4 °F /  31.9 °C 46.8 °F /  8.2 °C 29.59in /  1001.9hPa NE 2.0mph /  3.2km/h 5.0mph /  8km/h 23% 0.00in /  0mm 1164.0 W/m2
14:30 90.5 °F /  32.5 °C 47.7 °F /  8.7 °C 29.59in /  1001.9hPa NW 2.9mph /  4.7km/h 5.0mph /  8km/h 23% 0.00in /  0mm 1097.0 W/m2
14:35 91.8 °F /  33.2 °C 47.5 °F /  8.6 °C 29.59in /  1001.9hPa NNE 2.9mph /  4.7km/h 6.0mph /  9.7km/h 22% 0.00in /  0mm 1063.0 W/m2
14:40 92.5 °F /  33.6 °C 46.9 °F /  8.3 °C 29.59in /  1001.9hPa West 8.1mph /  13km/h 8.1mph /  13km/h 21% 0.00in /  0mm 1097.0 W/m2
14:45 92.5 °F /  33.6 °C 46.9 °F /  8.3 °C 29.58in /  1001.6hPa SW 6.0mph /  9.7km/h 7.0mph /  11.3km/h 21% 0.00in /  0mm 1048.0 W/m2
14:49 92.1 °F /  33.4 °C 46.6 °F /  8.1 °C 29.58in /  1001.6hPa WSW 2.9mph /  4.7km/h 6.0mph /  9.7km/h 21% 0.00in /  0mm 967.0 W/m2
14:55 91.8 °F /  33.2 °C 46.2 °F /  7.9 °C 29.58in /  1001.6hPa WNW 2.9mph /  4.7km/h 6.0mph /  9.7km/h 21% 0.00in /  0mm 956.0 W/m2
15:00 91.6 °F /  33.1 °C 47.3 °F /  8.5 °C 29.57in /  1001.2hPa WNW 0.9mph /  1.4km/h 4.0mph /  6.4km/h 22% 0.00in /  0mm 963.0 W/m2
15:05 91.9 °F /  33.3 °C 47.7 °F /  8.7 °C 29.57in /  1001.2hPa NE 2.0mph /  3.2km/h 3.0mph /  4.8km/h 22% 0.00in /  0mm 960.0 W/m2
15:10 92.8 °F /  33.8 °C 47.1 °F /  8.4 °C 29.57in /  1001.2hPa NNW 4.9mph /  7.9km/h 6.0mph /  9.7km/h 21% 0.00in /  0mm 993.0 W/m2
15:15 93.2 °F /  34 °C 47.5 °F /  8.6 °C 29.56in /  1000.9hPa WNW 2.0mph /  3.2km/h 6.0mph /  9.7km/h 21% 0.00in /  0mm 969.0 W/m2
15:20 93.2 °F /  34 °C 47.5 °F /  8.6 °C 29.56in /  1000.9hPa SW 2.9mph /  4.7km/h 5.0mph /  8km/h 21% 0.00in /  0mm 1011.0 W/m2
15:21 93.2 °F /  34 °C 47.5 °F /  8.6 °C 29.56in /  1000.9hPa WSW 6.9mph /  11.1km/h 10.0mph /  16.1km/h 21% 0.00in /  0mm 1009.0 W/m2
15:24 92.1 °F /  33.4 °C 46.6 °F /  8.1 °C 29.56in /  1000.9hPa SW 2.0mph /  3.2km/h 4.0mph /  6.4km/h 21% 0.00in /  0mm 244.0 W/m2
15:29 91.6 °F /  33.1 °C 47.3 °F /  8.5 °C 29.55in /  1000.6hPa NW 0.9mph /  1.4km/h 6.0mph /  9.7km/h 22% 0.00in /  0mm 983.0 W/m2
15:34 91.8 °F /  33.2 °C 47.5 °F /  8.6 °C 29.55in /  1000.6hPa NE 2.0mph /  3.2km/h 8.0mph /  12.9km/h 22% 0.00in /  0mm 204.0 W/m2
15:39 91.2 °F /  32.9 °C 47.1 °F /  8.4 °C 29.55in /  1000.6hPa SSE 0.9mph /  1.4km/h 6.0mph /  9.7km/h 22% 0.00in /  0mm 186.0 W/m2
15:44 90.7 °F /  32.6 °C 48.9 °F /  9.4 °C 29.55in /  1000.6hPa NE 4.0mph /  6.4km/h 10.0mph /  16.1km/h 24% 0.00in /  0mm 190.0 W/m2
15:50 89.1 °F /  31.7 °C 51.8 °F /  11 °C 29.55in /  1000.6hPa NE 11.0mph /  17.7km/h 17.0mph /  27.4km/h 28% 0.00in /  0mm 218.0 W/m2
15:55 87.1 °F /  30.6 °C 52.7 °F /  11.5 °C 29.55in /  1000.6hPa NNE 4.9mph /  7.9km/h 10.0mph /  16.1km/h 31% 0.00in /  0mm 186.0 W/m2
16:00 86.0 °F /  30 °C 51.8 °F /  11 °C 29.55in /  1000.6hPa East 8.9mph /  14.3km/h 13.0mph /  20.9km/h 31% 0.00in /  0mm 174.0 W/m2
16:05 85.5 °F /  29.7 °C 53.1 °F /  11.7 °C 29.55in /  1000.6hPa East 6.9mph /  11.1km/h 13.0mph /  20.9km/h 33% 0.00in /  0mm 167.0 W/m2
16:07 85.6 °F /  29.8 °C 51.6 °F /  10.9 °C 29.55in /  1000.6hPa East 6.0mph /  9.7km/h 15.0mph /  24.1km/h 31% 0.00in /  0mm 171.0 W/m2
16:12 84.7 °F /  29.3 °C 52.5 °F /  11.4 °C 29.55in /  1000.6hPa ENE 4.9mph /  7.9km/h 9.0mph /  14.5km/h 33% 0.00in /  0mm 134.0 W/m2
16:13 84.7 °F /  29.3 °C 52.5 °F /  11.4 °C 29.54in /  1000.2hPa SE 4.0mph /  6.4km/h 7.0mph /  11.3km/h 33% 0.00in /  0mm 128.0 W/m2
16:16 84.6 °F /  29.2 °C 51.4 °F /  10.8 °C 29.55in /  1000.6hPa ENE 6.0mph /  9.7km/h 10.0mph /  16.1km/h 32% 0.00in /  0mm 118.0 W/m2
16:21 84.4 °F /  29.1 °C 51.3 °F /  10.7 °C 29.54in /  1000.2hPa ENE 4.9mph /  7.9km/h 9.0mph /  14.5km/h 32% 0.00in /  0mm 141.0 W/m2
16:26 84.4 °F /  29.1 °C 52.2 °F /  11.2 °C 29.55in /  1000.6hPa East 4.9mph /  7.9km/h 9.0mph /  14.5km/h 33% 0.00in /  0mm 109.0 W/m2
16:31 83.8 °F /  28.8 °C 53.2 °F /  11.8 °C 29.55in /  1000.6hPa ESE 4.0mph /  6.4km/h 10.0mph /  16.1km/h 35% 0.00in /  0mm 102.0 W/m2
16:36 83.5 °F /  28.6 °C 53.8 °F /  12.1 °C 29.55in /  1000.6hPa ENE 8.9mph /  14.3km/h 9.0mph /  14.5km/h 36% 0.00in /  0mm 98.0 W/m2
16:42 82.9 °F /  28.3 °C 54.7 °F /  12.6 °C 29.55in /  1000.6hPa Calm   10.0mph /  16.1km/h 38% 0.00in /  0mm 79.0 W/m2
16:48 82.6 °F /  28.1 °C 54.3 °F /  12.4 °C 29.55in /  1000.6hPa ENE 4.0mph /  6.4km/h 10.0mph /  16.1km/h 38% 0.00in /  0mm 56.0 W/m2
16:53 82.4 °F /  28 °C 53.6 °F /  12 °C 29.55in /  1000.6hPa ENE 0.9mph /  1.4km/h 7.0mph /  11.3km/h 37% 0.00in /  0mm 39.0 W/m2
16:58 82.2 °F /  27.9 °C 54.1 °F /  12.3 °C 29.55in /  1000.6hPa SE 2.9mph /  4.7km/h 5.0mph /  8km/h 38% 0.00in /  0mm 37.0 W/m2
16:59 82.2 °F /  27.9 °C 54.1 °F /  12.3 °C 29.55in /  1000.6hPa ESE 2.9mph /  4.7km/h 6.0mph /  9.7km/h 38% 0.00in /  0mm 37.0 W/m2
17:05 81.1 °F /  27.3 °C 63.0 °F /  17.2 °C 29.55in /  1000.6hPa SE 6.0mph /  9.7km/h 9.0mph /  14.5km/h 54% 0.16in /  4.06mm 26.0 W/m2
17:10 78.3 °F /  25.7 °C 64.6 °F /  18.1 °C 29.55in /  1000.6hPa ESE 2.9mph /  4.7km/h 4.0mph /  6.4km/h 63% 0.16in /  4.06mm 25.0 W/m2
17:11 77.7 °F /  25.4 °C 64.9 °F /  18.3 °C 29.55in /  1000.6hPa ESE 2.9mph /  4.7km/h 6.0mph /  9.7km/h 65% 0.16in /  4.06mm 25.0 W/m2
17:16 75.7 °F /  24.3 °C 65.7 °F /  18.7 °C 29.55in /  1000.6hPa ESE 2.0mph /  3.2km/h 4.0mph /  6.4km/h 71% 0.19in /  4.83mm 18.0 W/m2
17:21 73.9 °F /  23.3 °C 63.9 °F /  17.7 °C 29.55in /  1000.6hPa ESE 6.0mph /  9.7km/h 10.0mph /  16.1km/h 71% 0.30in /  7.62mm 11.0 W/m2
17:26 71.8 °F /  22.1 °C 60.3 °F /  15.7 °C 29.55in /  1000.6hPa SE 6.9mph /  11.1km/h 10.0mph /  16.1km/h 67% 0.35in /  8.89mm 9.0 W/m2
17:31 70.2 °F /  21.2 °C 59.5 °F /  15.3 °C 29.56in /  1000.9hPa SSW 4.9mph /  7.9km/h 14.0mph /  22.5km/h 69% 0.36in /  9.14mm 9.0 W/m2
17:37 69.1 °F /  20.6 °C 57.7 °F /  14.3 °C 29.59in /  1001.9hPa WSW 0.9mph /  1.4km/h 3.0mph /  4.8km/h 67% 0.37in /  9.4mm 18.0 W/m2
17:42 68.4 °F /  20.2 °C 60.1 °F /  15.6 °C 29.60in /  1002.3hPa East 4.0mph /  6.4km/h 8.0mph /  12.9km/h 75% 0.38in /  9.65mm 40.0 W/m2
17:47 67.5 °F /  19.7 °C 59.2 °F /  15.1 °C 29.60in /  1002.3hPa ESE 4.0mph /  6.4km/h 13.0mph /  20.9km/h 75% 0.39in /  9.91mm 67.0 W/m2
17:52 66.7 °F /  19.3 °C 59.4 °F /  15.2 °C 29.60in /  1002.3hPa ESE 2.9mph /  4.7km/h 10.0mph /  16.1km/h 77% 0.39in /  9.91mm 76.0 W/m2
18:02 66.0 °F /  18.9 °C 60.6 °F /  15.9 °C 29.60in /  1002.3hPa ESE 2.9mph /  4.7km/h 6.0mph /  9.7km/h 83% 0.31in /  7.87mm 49.0 W/m2
18:07 65.7 °F /  18.7 °C 60.1 °F /  15.6 °C 29.60in /  1002.3hPa ESE 4.9mph /  7.9km/h 8.0mph /  12.9km/h 82% 0.24in /  6.1mm 51.0 W/m2
18:12 65.8 °F /  18.8 °C 59.5 °F /  15.3 °C 29.60in /  1002.3hPa NE 2.9mph /  4.7km/h 7.0mph /  11.3km/h 80% 0.24in /  6.1mm 46.0 W/m2
18:17 66.0 °F /  18.9 °C 60.1 °F /  15.6 °C 29.59in /  1001.9hPa ENE 2.9mph /  4.7km/h 11.0mph /  17.7km/h 81% 0.20in /  5.08mm 39.0 W/m2
18:22 66.0 °F /  18.9 °C 60.4 °F /  15.8 °C 29.59in /  1001.9hPa NE 2.9mph /  4.7km/h 9.0mph /  14.5km/h 82% 0.09in /  2.29mm 39.0 W/m2
18:28 66.0 °F /  18.9 °C 60.6 °F /  15.9 °C 29.59in /  1001.9hPa East 2.9mph /  4.7km/h 6.0mph /  9.7km/h 83% 0.04in /  1.02mm 39.0 W/m2
18:33 66.0 °F /  18.9 °C 60.1 °F /  15.6 °C 29.59in /  1001.9hPa NE 6.9mph /  11.1km/h 7.0mph /  11.3km/h 81% 0.03in /  0.76mm 37.0 W/m2
18:38 66.0 °F /  18.9 °C 59.4 °F /  15.2 °C 29.60in /  1002.3hPa ENE 4.0mph /  6.4km/h 13.0mph /  20.9km/h 79% 0.03in /  0.76mm 32.0 W/m2
18:43 65.8 °F /  18.8 °C 59.2 °F /  15.1 °C 29.60in /  1002.3hPa NE 6.9mph /  11.1km/h 11.0mph /  17.7km/h 79% 0.02in /  0.51mm 23.0 W/m2
18:48 65.7 °F /  18.7 °C 59.0 °F /  15 °C 29.60in /  1002.3hPa East 4.0mph /  6.4km/h 5.0mph /  8km/h 79% 0.02in /  0.51mm 16.0 W/m2
18:53 65.7 °F /  18.7 °C 59.4 °F /  15.2 °C 29.60in /  1002.3hPa SE 0.9mph /  1.4km/h 7.0mph /  11.3km/h 80% 0.01in /  0.25mm 16.0 W/m2
18:58 65.7 °F /  18.7 °C 59.4 °F /  15.2 °C 29.60in /  1002.3hPa ENE 2.0mph /  3.2km/h 8.0mph /  12.9km/h 80% 0.01in /  0.25mm 16.0 W/m2
19:01 65.7 °F /  18.7 °C 59.7 °F /  15.4 °C 29.60in /  1002.3hPa NE 2.9mph /  4.7km/h 10.0mph /  16.1km/h 81% 0.01in /  0.25mm 16.0 W/m2
19:06 65.7 °F /  18.7 °C 59.4 °F /  15.2 °C 29.60in /  1002.3hPa ENE 4.9mph /  7.9km/h 6.0mph /  9.7km/h 80% 0.00in /  0mm 16.0 W/m2
19:11 65.8 °F /  18.8 °C 59.5 °F /  15.3 °C 29.61in /  1002.6hPa ENE 2.0mph /  3.2km/h 6.0mph /  9.7km/h 80% 0.00in /  0mm 14.0 W/m2
19:18 66.0 °F /  18.9 °C 59.4 °F /  15.2 °C 29.61in /  1002.6hPa NNE 2.9mph /  4.7km/h 7.0mph /  11.3km/h 79% 0.00in /  0mm 12.0 W/m2
19:24 66.2 °F /  19 °C 59.5 °F /  15.3 °C 29.61in /  1002.6hPa East 0.9mph /  1.4km/h 6.0mph /  9.7km/h 79% 0.00in /  0mm 11.0 W/m2
19:29 66.4 °F /  19.1 °C 59.7 °F /  15.4 °C 29.62in /  1002.9hPa East 0.9mph /  1.4km/h 5.0mph /  8km/h 79% 0.00in /  0mm 7.0 W/m2
19:34 66.6 °F /  19.2 °C 59.9 °F /  15.5 °C 29.62in /  1002.9hPa ENE 2.0mph /  3.2km/h 8.0mph /  12.9km/h 79% 0.00in /  0mm 5.0 W/m2
19:39 66.6 °F /  19.2 °C 58.8 °F /  14.9 °C 29.62in /  1002.9hPa East 6.0mph /  9.7km/h 7.0mph /  11.3km/h 76% 0.00in /  0mm 0.0 W/m2
19:44 66.7 °F /  19.3 °C 59.7 °F /  15.4 °C 29.62in /  1002.9hPa NE 2.0mph /  3.2km/h 8.0mph /  12.9km/h 78% 0.00in /  0mm 0.0 W/m2
19:49 66.9 °F /  19.4 °C 58.8 °F /  14.9 °C 29.62in /  1002.9hPa NE 0.9mph /  1.4km/h 5.0mph /  8km/h 75% 0.00in /  0mm 0.0 W/m2
19:54 66.9 °F /  19.4 °C 58.3 °F /  14.6 °C 29.63in /  1003.3hPa ESE 2.9mph /  4.7km/h 3.0mph /  4.8km/h 74% 0.00in /  0mm 0.0 W/m2
20:00 67.5 °F /  19.7 °C 58.8 °F /  14.9 °C 29.64in /  1003.6hPa Calm   3.0mph /  4.8km/h 74% 0.00in /  0mm 0.0 W/m2
20:05 67.6 °F /  19.8 °C 59.0 °F /  15 °C 29.65in /  1003.9hPa Calm   2.0mph /  3.2km/h 74% 0.00in /  0mm 0.0 W/m2
20:12 68.2 °F /  20.1 °C 58.5 °F /  14.7 °C 29.65in /  1003.9hPa Calm   1.0mph /  1.6km/h 71% 0.00in /  0mm 0.0 W/m2
20:18 68.4 °F /  20.2 °C 58.6 °F /  14.8 °C 29.66in /  1004.3hPa Calm     71% 0.00in /  0mm 0.0 W/m2
20:23 68.5 °F /  20.3 °C 59.2 °F /  15.1 °C 29.66in /  1004.3hPa Calm     72% 0.00in /  0mm 0.0 W/m2
20:28 68.5 °F /  20.3 °C 59.2 °F /  15.1 °C 29.67in /  1004.6hPa Calm     72% 0.00in /  0mm 0.0 W/m2
20:33 68.7 °F /  20.4 °C 59.0 °F /  15 °C 29.67in /  1004.6hPa Calm   1.0mph /  1.6km/h 71% 0.00in /  0mm 0.0 W/m2
20:35 68.9 °F /  20.5 °C 59.2 °F /  15.1 °C 29.67in /  1004.6hPa WSW 2.9mph /  4.7km/h 5.0mph /  8km/h 71% 0.00in /  0mm 0.0 W/m2
20:40 69.1 °F /  20.6 °C 58.8 °F /  14.9 °C 29.68in /  1005hPa Calm   1.0mph /  1.6km/h 70% 0.00in /  0mm 0.0 W/m2
20:46 69.4 °F /  20.8 °C 58.8 °F /  14.9 °C 29.68in /  1005hPa Calm   1.0mph /  1.6km/h 69% 0.00in /  0mm 0.0 W/m2
20:48 69.4 °F /  20.8 °C 58.8 °F /  14.9 °C 29.68in /  1005hPa Calm     69% 0.00in /  0mm 0.0 W/m2
20:53 69.6 °F /  20.9 °C 59.0 °F /  15 °C 29.68in /  1005hPa Calm     69% 0.00in /  0mm 0.0 W/m2
20:59 69.6 °F /  20.9 °C 59.0 °F /  15 °C 29.68in /  1005hPa Calm     69% 0.00in /  0mm 0.0 W/m2
21:04 69.6 °F /  20.9 °C 59.0 °F /  15 °C 29.68in /  1005hPa Calm     69% 0.00in /  0mm 0.0 W/m2
21:09 69.6 °F /  20.9 °C 58.6 °F /  14.8 °C 29.68in /  1005hPa Calm     68% 0.00in /  0mm 0.0 W/m2
21:14 69.6 °F /  20.9 °C 58.6 °F /  14.8 °C 29.68in /  1005hPa Calm     68% 0.00in /  0mm 0.0 W/m2
21:19 69.8 °F /  21 °C 58.8 °F /  14.9 °C 29.69in /  1005.3hPa Calm     68% 0.00in /  0mm 0.0 W/m2
21:25 70.0 °F /  21.1 °C 59.0 °F /  15 °C 29.69in /  1005.3hPa Calm   1.0mph /  1.6km/h 68% 0.00in /  0mm 0.0 W/m2
21:30 70.2 °F /  21.2 °C 59.5 °F /  15.3 °C 29.70in /  1005.6hPa Calm     69% 0.00in /  0mm 0.0 W/m2
21:35 70.2 °F /  21.2 °C 57.9 °F /  14.4 °C 29.70in /  1005.6hPa Calm     65% 0.00in /  0mm 0.0 W/m2
21:41 70.2 °F /  21.2 °C 58.6 °F /  14.8 °C 29.70in /  1005.6hPa Calm     67% 0.00in /  0mm 0.0 W/m2
21:43 70.2 °F /  21.2 °C 59.2 °F /  15.1 °C 29.70in /  1005.6hPa Calm   1.0mph /  1.6km/h 68% 0.00in /  0mm 0.0 W/m2
21:48 70.3 °F /  21.3 °C 59.7 °F /  15.4 °C 29.70in /  1005.6hPa Calm     69% 0.00in /  0mm 0.0 W/m2
21:50 70.3 °F /  21.3 °C 60.1 °F /  15.6 °C 29.70in /  1005.6hPa Calm     70% 0.00in /  0mm 0.0 W/m2
21:55 70.3 °F /  21.3 °C 61.3 °F /  16.3 °C 29.70in /  1005.6hPa ENE 0.9mph /  1.4km/h 3.0mph /  4.8km/h 73% 0.00in /  0mm 0.0 W/m2
22:00 70.3 °F /  21.3 °C 60.8 °F /  16 °C 29.70in /  1005.6hPa NE 2.0mph /  3.2km/h 4.0mph /  6.4km/h 72% 0.00in /  0mm 0.0 W/m2
22:05 70.3 °F /  21.3 °C 59.4 °F /  15.2 °C 29.70in /  1005.6hPa NE 4.9mph /  7.9km/h 6.0mph /  9.7km/h 68% 0.00in /  0mm 0.0 W/m2
22:10 70.3 °F /  21.3 °C 58.5 °F /  14.7 °C 29.70in /  1005.6hPa North 6.0mph /  9.7km/h 7.0mph /  11.3km/h 66% 0.00in /  0mm 0.0 W/m2
22:16 70.5 °F /  21.4 °C 58.6 °F /  14.8 °C 29.70in /  1005.6hPa NNE 0.9mph /  1.4km/h 3.0mph /  4.8km/h 66% 0.00in /  0mm 0.0 W/m2
22:21 70.5 °F /  21.4 °C 59.4 °F /  15.2 °C 29.71in /  1006hPa Calm   3.0mph /  4.8km/h 68% 0.00in /  0mm 0.0 W/m2
22:26 70.7 °F /  21.5 °C 60.1 °F /  15.6 °C 29.72in /  1006.3hPa NNE 2.9mph /  4.7km/h 4.0mph /  6.4km/h 69% 0.00in /  0mm 0.0 W/m2
22:32 70.7 °F /  21.5 °C 60.4 °F /  15.8 °C 29.72in /  1006.3hPa NE 2.0mph /  3.2km/h 5.0mph /  8km/h 70% 0.00in /  0mm 0.0 W/m2
22:37 70.7 °F /  21.5 °C 58.8 °F /  14.9 °C 29.73in /  1006.7hPa NE 4.0mph /  6.4km/h 11.0mph /  17.7km/h 66% 0.00in /  0mm 0.0 W/m2
22:42 70.7 °F /  21.5 °C 58.3 °F /  14.6 °C 29.72in /  1006.3hPa North 2.0mph /  3.2km/h 11.0mph /  17.7km/h 65% 0.00in /  0mm 0.0 W/m2
22:47 70.7 °F /  21.5 °C 58.8 °F /  14.9 °C 29.73in /  1006.7hPa Calm   7.0mph /  11.3km/h 66% 0.00in /  0mm 0.0 W/m2
22:52 70.5 °F /  21.4 °C 58.6 °F /  14.8 °C 29.73in /  1006.7hPa East 2.0mph /  3.2km/h 9.0mph /  14.5km/h 66% 0.00in /  0mm 0.0 W/m2
22:56 70.3 °F /  21.3 °C 58.5 °F /  14.7 °C 29.72in /  1006.3hPa ESE 2.0mph /  3.2km/h 6.0mph /  9.7km/h 66% 0.00in /  0mm 0.0 W/m2
23:01 70.3 °F /  21.3 °C 58.5 °F /  14.7 °C 29.72in /  1006.3hPa NE 2.0mph /  3.2km/h 9.0mph /  14.5km/h 66% 0.00in /  0mm 0.0 W/m2
23:02 70.2 °F /  21.2 °C 58.3 °F /  14.6 °C 29.72in /  1006.3hPa North 8.1mph /  13km/h 8.1mph /  13km/h 66% 0.00in /  0mm 0.0 W/m2
23:07 70.2 °F /  21.2 °C 58.3 °F /  14.6 °C 29.72in /  1006.3hPa NE 2.0mph /  3.2km/h 7.0mph /  11.3km/h 66% 0.00in /  0mm 0.0 W/m2
23:12 70.0 °F /  21.1 °C 58.1 °F /  14.5 °C 29.72in /  1006.3hPa SE 0.9mph /  1.4km/h 10.0mph /  16.1km/h 66% 0.00in /  0mm 0.0 W/m2
23:17 70.0 °F /  21.1 °C 58.1 °F /  14.5 °C 29.72in /  1006.3hPa ENE 2.9mph /  4.7km/h 12.0mph /  19.3km/h 66% 0.00in /  0mm 0.0 W/m2
23:23 69.6 °F /  20.9 °C 57.7 °F /  14.3 °C 29.72in /  1006.3hPa East 2.0mph /  3.2km/h 3.0mph /  4.8km/h 66% 0.00in /  0mm 0.0 W/m2
23:25 69.6 °F /  20.9 °C 57.7 °F /  14.3 °C 29.72in /  1006.3hPa East 6.9mph /  11.1km/h 10.0mph /  16.1km/h 66% 0.00in /  0mm 0.0 W/m2
23:30 69.4 °F /  20.8 °C 57.9 °F /  14.4 °C 29.73in /  1006.7hPa East 2.9mph /  4.7km/h 4.0mph /  6.4km/h 67% 0.00in /  0mm 0.0 W/m2
23:35 69.3 °F /  20.7 °C 58.3 °F /  14.6 °C 29.73in /  1006.7hPa NNE 4.0mph /  6.4km/h 5.0mph /  8km/h 68% 0.00in /  0mm 0.0 W/m2
23:40 69.1 °F /  20.6 °C 58.5 °F /  14.7 °C 29.72in /  1006.3hPa NE 0.9mph /  1.4km/h 7.0mph /  11.3km/h 69% 0.00in /  0mm 0.0 W/m2
23:41 69.1 °F /  20.6 °C 58.8 °F /  14.9 °C 29.72in /  1006.3hPa ENE 0.9mph /  1.4km/h 7.0mph /  11.3km/h 70% 0.00in /  0mm 0.0 W/m2
23:46 68.7 °F /  20.4 °C 59.0 °F /  15 °C 29.73in /  1006.7hPa East 2.0mph /  3.2km/h 8.0mph /  12.9km/h 71% 0.00in /  0mm 0.0 W/m2
23:51 68.4 °F /  20.2 °C 59.4 °F /  15.2 °C 29.73in /  1006.7hPa NE 6.9mph /  11.1km/h 8.0mph /  12.9km/h 73% 0.00in /  0mm 0.0 W/m2
23:56 67.8 °F /  19.9 °C 59.2 °F /  15.1 °C 29.72in /  1006.3hPa ENE 4.9mph /  7.9km/h 8.0mph /  12.9km/h 74% 0.00in /  0mm 0.0 W/m2
Olympia, Windhoek, Namibia
Compliments of Weather Underground - 3.5 mb